Francis Benedict — WDC2633 — position and weather

sailwx.info

Track history (hours):
 
Tides and Currents Weather Stations Pressure Air Temp Water Temp Dewpoint Dewpoint Depression Visibility Wind Speed Wind Dir Waves Ship Positions

Francis Benedict

Owner: Kirby Inland Marine LP, Houston, TX. More information available from US FCC via Universal Licensing System and Coast Guard Vessel Documentation Center.

Last reported at 2017-Oct-16 10:47 UTC. Time now 2017-Oct-19 15:08 UTC.
Position N 32°38' W 091°09'.

Length 217 m; draft 2.7 m.

Type: Towing. MMSI: 366995820.

Date/timePositionNaut miles runAvg speedWind from/ knotsBaromVisibWave heightAir tempDewpointWater temp
2017-Oct-16 10:47N 32°38' W 091°09'1 4.4
2017-Oct-16 10:30N 32°37' W 091°09'2 4.7
2017-Oct-16 10:00N 32°35' W 091°07'2 4.0
2017-Oct-16 09:30N 32°33' W 091°06'3 3.7
2017-Oct-16 08:39N 32°30' W 091°07'1 5.2
2017-Oct-16 08:30N 32°30' W 091°07'2 4.5
2017-Oct-16 08:00N 32°28' W 091°06'2 4.8
2017-Oct-16 07:30N 32°26' W 091°03'2 4.4
2017-Oct-16 07:00N 32°26' W 091°01'2 3.8
2017-Oct-16 06:30N 32°24' W 090°59'2 4.0
2017-Oct-16 06:00N 32°22' W 091°00'2 3.8
2017-Oct-16 05:30N 32°21' W 090°59'2 4.0
2017-Oct-16 05:00N 32°21' W 090°56'2 4.0
2017-Oct-16 04:30N 32°20' W 090°54'2 3.9
2017-Oct-16 04:00N 32°18' W 090°55'0 0.3
2017-Oct-16 03:31N 32°18' W 090°55'0 0.1
2017-Oct-16 03:00N 32°18' W 090°55'0 0.0
2017-Oct-16 02:30N 32°18' W 090°55'0 0.0
2017-Oct-16 02:00N 32°18' W 090°55'0 0.0
2017-Oct-16 01:30N 32°18' W 090°55'0 0.1
2017-Oct-16 01:00N 32°18' W 090°55'0 0.0
2017-Oct-16 00:30N 32°18' W 090°55'0 0.0
2017-Oct-16 00:00N 32°18' W 090°55'0 0.0
2017-Oct-15 23:30N 32°18' W 090°55'0 0.0
2017-Oct-15 23:00N 32°18' W 090°55'0 0.0
2017-Oct-15 22:30N 32°18' W 090°55'0 0.0
2017-Oct-15 22:00N 32°18' W 090°55'0 0.0
2017-Oct-15 21:30N 32°18' W 090°55'0 0.0
2017-Oct-15 21:00N 32°18' W 090°55'0 0.0
2017-Oct-15 20:30N 32°18' W 090°55'0 0.6
2017-Oct-15 20:00N 32°18' W 090°55'3 5.1
2017-Oct-15 19:30N 32°21' W 090°55'4 7.8
2017-Oct-15 19:00N 32°21' W 091°00'4 7.7
2017-Oct-15 18:30N 32°25' W 091°00'4 8.5
2017-Oct-15 18:00N 32°27' W 091°05'4 7.5
2017-Oct-15 17:30N 32°30' W 091°07'4 8.1
2017-Oct-15 17:00N 32°34' W 091°07'6 7.5
2017-Oct-15 16:15N 32°40' W 091°08'  
Track history (hours):
 
Tides and Currents Weather Stations Pressure Air Temp Water Temp Dewpoint Dewpoint Depression Visibility Wind Speed Wind Dir Waves Ship Positions

Francis Benedict

Owner: Kirby Inland Marine LP, Houston, TX. More information available from US FCC via Universal Licensing System and Coast Guard Vessel Documentation Center.

Last reported at 2017-Oct-16 10:47 UTC. Time now 2017-Oct-19 15:08 UTC.
Position N 32°38' W 091°09'.

Length 217 m; draft 2.7 m.

Type: Towing. MMSI: 366995820.

Date/timePositionNaut miles runAvg speedWind from/ knotsBaromVisibWave heightAir tempDewpointWater temp
2017-Oct-16 10:47N 32°38' W 091°09'1 4.4
2017-Oct-16 10:30N 32°37' W 091°09'2 4.7
2017-Oct-16 10:00N 32°35' W 091°07'2 4.0
2017-Oct-16 09:30N 32°33' W 091°06'3 3.7
2017-Oct-16 08:39N 32°30' W 091°07'1 5.2
2017-Oct-16 08:30N 32°30' W 091°07'2 4.5
2017-Oct-16 08:00N 32°28' W 091°06'2 4.8
2017-Oct-16 07:30N 32°26' W 091°03'2 4.4
2017-Oct-16 07:00N 32°26' W 091°01'2 3.8
2017-Oct-16 06:30N 32°24' W 090°59'2 4.0
2017-Oct-16 06:00N 32°22' W 091°00'2 3.8
2017-Oct-16 05:30N 32°21' W 090°59'2 4.0
2017-Oct-16 05:00N 32°21' W 090°56'2 4.0
2017-Oct-16 04:30N 32°20' W 090°54'2 3.9
2017-Oct-16 04:00N 32°18' W 090°55'0 0.3
2017-Oct-16 03:31N 32°18' W 090°55'0 0.1
2017-Oct-16 03:00N 32°18' W 090°55'0 0.0
2017-Oct-16 02:30N 32°18' W 090°55'0 0.0
2017-Oct-16 02:00N 32°18' W 090°55'0 0.0
2017-Oct-16 01:30N 32°18' W 090°55'0 0.1
2017-Oct-16 01:00N 32°18' W 090°55'0 0.0
2017-Oct-16 00:30N 32°18' W 090°55'0 0.0
2017-Oct-16 00:00N 32°18' W 090°55'0 0.0
2017-Oct-15 23:30N 32°18' W 090°55'0 0.0
2017-Oct-15 23:00N 32°18' W 090°55'0 0.0
2017-Oct-15 22:30N 32°18' W 090°55'0 0.0
2017-Oct-15 22:00N 32°18' W 090°55'0 0.0
2017-Oct-15 21:30N 32°18' W 090°55'0 0.0
2017-Oct-15 21:00N 32°18' W 090°55'0 0.0
2017-Oct-15 20:30N 32°18' W 090°55'0 0.6
2017-Oct-15 20:00N 32°18' W 090°55'3 5.1
2017-Oct-15 19:30N 32°21' W 090°55'4 7.8
2017-Oct-15 19:00N 32°21' W 091°00'4 7.7
2017-Oct-15 18:30N 32°25' W 091°00'4 8.5
2017-Oct-15 18:00N 32°27' W 091°05'4 7.5
2017-Oct-15 17:30N 32°30' W 091°07'4 8.1
2017-Oct-15 17:00N 32°34' W 091°07'6 7.5
2017-Oct-15 16:15N 32°40' W 091°08'  

Dump ship's entire track history